createdAt,value
2023-01-13T00:00:12.742Z,8.11
2023-01-13T00:02:39.278Z,8.08
2023-01-13T00:05:06.211Z,8.05
2023-01-13T00:07:32.721Z,8.00
2023-01-13T00:09:59.158Z,7.94
2023-01-13T00:12:25.613Z,7.87
2023-01-13T00:14:52.119Z,7.86
2023-01-13T00:17:18.570Z,7.82
2023-01-13T00:19:45.802Z,7.80
2023-01-13T00:22:12.249Z,7.76
2023-01-13T00:24:38.707Z,7.67
2023-01-13T00:27:05.314Z,7.60
2023-01-13T00:29:31.848Z,7.53
2023-01-13T00:31:58.762Z,7.48
2023-01-13T00:34:25.247Z,7.47
2023-01-13T00:36:51.748Z,7.54
2023-01-13T00:39:18.281Z,7.60
2023-01-13T00:42:03.471Z,7.59
2023-01-13T00:44:29.899Z,7.56
2023-01-13T00:46:56.446Z,7.54
2023-01-13T00:49:22.880Z,7.49
2023-01-13T00:51:49.390Z,7.42
2023-01-13T00:54:16.036Z,7.39
2023-01-13T00:56:42.563Z,7.40
2023-01-13T00:59:13.305Z,7.41
2023-01-13T01:01:41.072Z,7.38
2023-01-13T01:04:07.830Z,7.40
2023-01-13T01:06:34.354Z,7.46
2023-01-13T01:09:01.047Z,7.42
2023-01-13T01:11:30.746Z,7.42
2023-01-13T01:13:59.036Z,7.42
2023-01-13T01:16:27.824Z,7.44
2023-01-13T01:18:55.595Z,7.43
2023-01-13T01:21:24.689Z,7.40
2023-01-13T01:23:51.542Z,7.39
2023-01-13T01:26:20.947Z,7.38
2023-01-13T01:28:47.992Z,7.35
2023-01-13T01:31:20.286Z,7.30
2023-01-13T01:33:47.591Z,7.32
2023-01-13T01:36:16.285Z,7.33
2023-01-13T01:38:43.659Z,7.34
2023-01-13T01:41:16.251Z,7.35
2023-01-13T01:43:59.152Z,7.39
2023-01-13T01:46:40.694Z,7.44
2023-01-13T01:49:22.786Z,7.43
2023-01-13T01:51:56.565Z,7.44
2023-01-13T01:54:48.779Z,7.44
2023-01-13T01:57:23.364Z,7.46
2023-01-13T01:59:50.031Z,7.45
2023-01-13T02:02:17.371Z,7.39
2023-01-13T02:04:50.982Z,7.39
2023-01-13T02:07:20.736Z,7.33
2023-01-13T02:09:48.114Z,7.32
2023-01-13T02:12:31.873Z,7.32
2023-01-13T02:15:08.751Z,7.25
2023-01-13T02:17:45.284Z,7.26
2023-01-13T02:20:50.278Z,7.24
2023-01-13T02:24:07.072Z,7.23
2023-01-13T02:26:45.687Z,7.24
2023-01-13T02:29:44.973Z,7.28
2023-01-13T02:32:26.370Z,7.28
2023-01-13T02:35:34.384Z,7.29
2023-01-13T02:38:02.140Z,7.25
2023-01-13T02:40:48.514Z,7.26
2023-01-13T02:43:44.593Z,7.32
2023-01-13T02:46:17.688Z,7.35
2023-01-13T02:48:47.693Z,7.36
2023-01-13T02:51:18.269Z,7.34
2023-01-13T02:53:50.689Z,7.37
2023-01-13T02:56:18.051Z,7.41
2023-01-13T02:58:46.934Z,7.44
2023-01-13T03:01:13.716Z,7.47
2023-01-13T03:03:40.262Z,7.39
2023-01-13T03:06:40.948Z,7.42
2023-01-13T03:09:38.089Z,7.47
2023-01-13T03:12:15.730Z,7.46
2023-01-13T03:14:51.815Z,7.38
2023-01-13T03:17:21.090Z,7.33
2023-01-13T03:20:02.083Z,7.31
2023-01-13T03:22:33.699Z,7.26
2023-01-13T03:25:06.026Z,7.22
2023-01-13T03:27:41.168Z,7.24
2023-01-13T03:30:15.706Z,7.20
2023-01-13T03:32:47.206Z,7.19
2023-01-13T03:35:23.368Z,7.16
2023-01-13T03:38:03.362Z,7.20
2023-01-13T03:40:35.435Z,7.21
2023-01-13T03:43:25.552Z,7.24
2023-01-13T03:45:57.994Z,7.35
2023-01-13T03:48:27.815Z,7.39
2023-01-13T03:50:58.709Z,7.43
2023-01-13T03:53:37.943Z,7.42
2023-01-13T03:56:17.518Z,7.38
2023-01-13T03:58:47.954Z,7.38
2023-01-13T04:01:39.583Z,7.39
2023-01-13T04:04:08.628Z,7.39
2023-01-13T04:06:48.736Z,7.33
2023-01-13T04:09:22.171Z,7.28
2023-01-13T04:12:08.494Z,7.21
2023-01-13T04:14:35.994Z,7.23
2023-01-13T04:17:02.591Z,7.16
2023-01-13T04:19:29.209Z,7.13
2023-01-13T04:21:55.647Z,7.15
2023-01-13T04:24:22.107Z,7.14
2023-01-13T04:26:48.666Z,7.08
2023-01-13T04:29:15.844Z,7.07
2023-01-13T04:31:42.960Z,7.11
2023-01-13T04:34:12.963Z,7.09
2023-01-13T04:36:39.482Z,7.08
2023-01-13T04:39:06.127Z,7.11
2023-01-13T04:41:51.317Z,7.14
2023-01-13T04:44:17.789Z,7.11
2023-01-13T04:46:44.262Z,7.10
2023-01-13T04:49:10.772Z,7.05
2023-01-13T04:51:37.248Z,6.97
2023-01-13T04:54:04.106Z,6.91
2023-01-13T04:56:30.722Z,6.89
2023-01-13T04:58:57.318Z,6.85
2023-01-13T05:01:23.953Z,6.85
2023-01-13T05:03:50.565Z,6.88
2023-01-13T05:06:17.037Z,6.92
2023-01-13T05:08:43.484Z,6.99
2023-01-13T05:11:28.539Z,7.04
2023-01-13T05:14:13.648Z,6.99
2023-01-13T05:16:58.816Z,7.00
2023-01-13T05:19:25.268Z,7.02
2023-01-13T05:22:10.357Z,7.03
2023-01-13T05:24:55.484Z,6.99
2023-01-13T05:27:22.009Z,7.01
2023-01-13T05:29:48.451Z,6.99
2023-01-13T05:32:15.350Z,7.01
2023-01-13T05:34:41.790Z,7.02
2023-01-13T05:37:10.972Z,7.09
2023-01-13T05:39:55.994Z,7.08
2023-01-13T05:42:41.188Z,7.08
2023-01-13T05:45:08.309Z,7.01
2023-01-13T05:47:34.806Z,6.99
2023-01-13T05:50:01.392Z,7.00
2023-01-13T05:52:28.022Z,7.00
2023-01-13T05:54:54.451Z,6.94
2023-01-13T05:57:20.953Z,6.97
2023-01-13T05:59:47.425Z,6.92
2023-01-13T06:02:13.984Z,6.89
2023-01-13T06:04:40.489Z,6.90
2023-01-13T06:07:06.986Z,6.88
2023-01-13T06:09:33.544Z,6.92
2023-01-13T06:12:00.042Z,6.88
2023-01-13T06:14:39.928Z,6.89
2023-01-13T06:17:11.892Z,6.87
2023-01-13T06:19:38.802Z,6.88
2023-01-13T06:22:23.687Z,6.86
2023-01-13T06:24:53.547Z,6.88
2023-01-13T06:27:21.462Z,6.95
2023-01-13T06:29:48.118Z,6.98
2023-01-13T06:32:21.694Z,7.04
2023-01-13T06:34:55.380Z,7.09
2023-01-13T06:37:26.099Z,7.12
2023-01-13T06:39:58.136Z,7.13
2023-01-13T06:42:48.311Z,7.15
2023-01-13T06:45:14.909Z,7.18
2023-01-13T06:47:41.789Z,7.21
2023-01-13T06:50:09.145Z,7.22
2023-01-13T06:52:35.639Z,7.23
2023-01-13T06:55:02.958Z,7.24
2023-01-13T06:57:29.422Z,7.23
2023-01-13T06:59:56.151Z,7.25
2023-01-13T07:02:22.767Z,7.24
2023-01-13T07:04:49.355Z,7.23
2023-01-13T07:07:15.861Z,7.23
2023-01-13T07:09:42.283Z,7.27
2023-01-13T07:12:08.815Z,7.27
2023-01-13T07:14:54.981Z,7.29
2023-01-13T07:17:25.523Z,7.28
2023-01-13T07:19:53.081Z,7.30
2023-01-13T07:22:19.690Z,7.31
2023-01-13T07:24:46.223Z,7.32
2023-01-13T07:27:12.731Z,7.34
2023-01-13T07:29:39.685Z,7.36
2023-01-13T07:32:07.816Z,7.38
2023-01-13T07:34:34.338Z,7.38
2023-01-13T07:37:01.528Z,7.42
2023-01-13T07:39:28.257Z,7.44
2023-01-13T07:42:13.993Z,7.45
2023-01-13T07:44:40.838Z,7.45
2023-01-13T07:47:08.596Z,7.45
2023-01-13T07:49:35.097Z,7.46
2023-01-13T07:52:01.776Z,7.49
2023-01-13T07:54:39.356Z,7.54
2023-01-13T07:57:07.040Z,7.58
2023-01-13T07:59:33.679Z,7.59
2023-01-13T08:02:00.381Z,7.61
2023-01-13T08:04:27.048Z,7.63
2023-01-13T08:06:53.583Z,7.64
2023-01-13T08:09:20.067Z,7.65
2023-01-13T08:12:06.552Z,7.67
2023-01-13T08:14:37.925Z,7.67
2023-01-13T08:17:04.379Z,7.70
2023-01-13T08:19:30.860Z,7.71
2023-01-13T08:21:57.323Z,7.76
2023-01-13T08:24:23.767Z,7.78
2023-01-13T08:26:50.269Z,7.81
2023-01-13T08:29:16.857Z,7.85
2023-01-13T08:31:43.344Z,7.88
2023-01-13T08:34:09.817Z,7.90
2023-01-13T08:36:36.252Z,7.93
2023-01-13T08:39:03.135Z,7.95
2023-01-13T08:41:48.128Z,7.94
2023-01-13T08:44:14.682Z,7.91
2023-01-13T08:46:41.771Z,7.89
2023-01-13T08:49:08.283Z,7.88
2023-01-13T08:51:34.854Z,7.84
2023-01-13T08:54:02.129Z,7.82
2023-01-13T08:56:30.096Z,7.80
2023-01-13T08:59:00.806Z,7.77
2023-01-13T09:01:27.735Z,7.76
2023-01-13T09:03:54.791Z,7.72
2023-01-13T09:06:21.456Z,7.69
2023-01-13T09:08:47.925Z,7.68
2023-01-13T09:11:47.751Z,7.71
2023-01-13T09:14:21.468Z,7.72
2023-01-13T09:16:47.984Z,7.69
2023-01-13T09:19:14.760Z,7.67
2023-01-13T09:21:41.500Z,7.67
2023-01-13T09:24:08.563Z,7.68
2023-01-13T09:26:35.096Z,7.67
2023-01-13T09:29:01.592Z,7.64
2023-01-13T09:31:28.764Z,7.61
2023-01-13T09:34:13.867Z,7.57
2023-01-13T09:36:40.362Z,7.54
2023-01-13T09:39:07.068Z,7.53
2023-01-13T09:42:06.081Z,7.56
2023-01-13T09:44:57.640Z,7.55
2023-01-13T09:47:35.492Z,7.60
2023-01-13T09:50:22.049Z,7.67
2023-01-13T09:52:48.536Z,7.73
2023-01-13T09:55:18.258Z,7.76
2023-01-13T09:57:44.920Z,7.79
2023-01-13T10:00:12.869Z,7.78
2023-01-13T10:03:01.801Z,7.82
2023-01-13T10:05:37.135Z,7.82
2023-01-13T10:08:32.136Z,7.87
2023-01-13T10:11:25.211Z,7.93
2023-01-13T10:13:58.237Z,7.93
